Time;durP1;ratioP1;P1;durP2;ratioP2;P2;SDS_P1;SDS_P2;PMS_P1;PMS_P2;Temp;Humidity;BMP_temperature;BMP_pressure;BME280_temperature;BME280_humidity;BME280_pressure;Samples;Min_cycle;Max_cycle;Signal;HPM_P1;HPM_P2
2022/04/23 00:00:50;;;;;;;16.67;4.13;;;15.60;97.40;;;;;;5015822;28;20055;-74
2022/04/23 00:03:17;;;;;;;14.35;4.32;;;15.60;97.30;;;;;;5033006;28;20033;-70
2022/04/23 00:05:43;;;;;;;13.75;4.00;;;15.60;97.30;;;;;;5033332;28;20398;-72
2022/04/23 00:08:10;;;;;;;18.00;4.32;;;15.70;97.30;;;;;;5033168;28;20029;-71
2022/04/23 00:10:36;;;;;;;12.98;4.28;;;15.60;97.30;;;;;;5033147;28;20112;-70
2022/04/23 00:13:04;;;;;;;15.45;4.22;;;15.60;97.30;;;;;;5032853;28;20506;-70
2022/04/23 00:15:37;;;;;;;13.88;4.32;;;15.60;97.40;;;;;;5032815;28;20022;-74
2022/04/23 00:18:12;;;;;;;15.23;3.85;;;15.60;97.40;;;;;;5033341;28;20053;-73
2022/04/23 00:20:38;;;;;;;12.43;3.50;;;15.50;97.40;;;;;;5033163;28;20482;-74
2022/04/23 00:23:05;;;;;;;14.18;3.88;;;15.50;97.40;;;;;;5033204;28;20030;-73
2022/04/23 00:25:35;;;;;;;16.48;4.38;;;15.50;97.50;;;;;;5015702;28;20056;-71
2022/04/23 00:28:00;;;;;;;18.27;3.50;;;15.40;97.60;;;;;;5033129;28;20026;-71
2022/04/23 00:30:26;;;;;;;10.48;3.70;;;15.40;97.70;;;;;;5033222;28;20104;-71
2022/04/23 00:32:52;;;;;;;12.65;4.07;;;15.30;97.80;;;;;;5032678;28;20030;-70
2022/04/23 00:35:18;;;;;;;20.63;4.40;;;15.30;97.90;;;;;;5032987;28;20030;-72
2022/04/23 00:37:45;;;;;;;15.48;4.07;;;15.30;98.10;;;;;;5032842;28;20025;-70
2022/04/23 00:40:24;;;;;;;15.07;4.20;;;15.30;98.10;;;;;;5032984;28;20025;-70
2022/04/23 00:42:57;;;;;;;11.90;3.58;;;15.30;98.30;;;;;;5032915;28;20061;-71
2022/04/23 00:45:23;;;;;;;13.05;4.13;;;15.20;98.20;;;;;;5035173;28;20080;-70
2022/04/23 00:47:50;;;;;;;11.38;4.03;;;15.10;98.20;;;;;;5036769;28;20078;-71
2022/04/23 00:50:23;;;;;;;14.57;3.75;;;15.10;98.50;;;;;;5036711;28;20017;-71
2022/04/23 00:52:52;;;;;;;10.45;3.80;;;15.10;98.70;;;;;;5036533;28;20041;-71
2022/04/23 00:55:18;;;;;;;15.52;3.72;;;15.00;98.50;;;;;;5036362;28;20021;-70
2022/04/23 00:57:44;;;;;;;12.07;3.72;;;15.00;98.60;;;;;;5036544;28;20056;-70
2022/04/23 01:00:11;;;;;;;12.18;3.65;;;15.00;98.70;;;;;;5036476;28;20032;-70
2022/04/23 01:02:37;;;;;;;15.35;4.13;;;15.00;99.10;;;;;;5036356;28;20386;-70
2022/04/23 01:05:08;;;;;;;10.23;3.40;;;14.90;98.90;;;;;;5036301;28;20028;-71
2022/04/23 01:07:41;;;;;;;17.45;3.80;;;14.90;99.00;;;;;;5036421;28;20083;-70
2022/04/23 01:10:07;;;;;;;8.07;2.70;;;14.90;99.10;;;;;;5036283;28;20029;-71
2022/04/23 01:12:35;;;;;;;11.13;3.55;;;14.90;99.10;;;;;;5036036;28;20033;-71
2022/04/23 01:15:05;;;;;;;16.00;3.72;;;14.90;99.10;;;;;;5036578;28;20080;-70
2022/04/23 01:17:32;;;;;;;13.23;3.47;;;14.90;99.20;;;;;;5036150;28;20029;-71
2022/04/23 01:19:58;;;;;;;12.73;3.45;;;14.90;99.30;;;;;;5036184;28;20486;-73
2022/04/23 01:22:24;;;;;;;15.20;3.40;;;14.90;99.20;;;;;;5035816;28;20103;-71
2022/04/23 01:24:55;;;;;;;16.15;4.10;;;14.80;99.20;;;;;;5035855;28;20475;-70
2022/04/23 01:27:29;;;;;;;15.13;3.30;;;14.80;99.20;;;;;;5036051;28;20022;-71
2022/04/23 01:29:58;;;;;;;12.65;3.50;;;14.90;99.30;;;;;;5036053;28;20026;-71
2022/04/23 01:32:24;;;;;;;14.90;3.22;;;14.90;99.20;;;;;;5035703;28;20109;-69
2022/04/23 01:34:49;;;;;;;13.02;3.75;;;14.90;99.20;;;;;;5035626;28;20049;-70
2022/04/23 01:37:17;;;;;;;14.82;3.40;;;14.80;99.20;;;;;;5036122;28;20034;-70
2022/04/23 01:39:44;;;;;;;8.90;2.75;;;14.80;99.30;;;;;;5036054;28;20033;-71
2022/04/23 01:42:11;;;;;;;9.90;3.00;;;14.70;99.40;;;;;;5036182;28;20395;-71
2022/04/23 01:44:36;;;;;;;11.85;3.13;;;14.70;99.50;;;;;;5036664;28;20026;-71
2022/04/23 01:47:03;;;;;;;19.85;3.45;;;14.70;99.60;;;;;;5038709;28;20056;-71
2022/04/23 01:49:28;;;;;;;11.50;3.13;;;14.70;99.50;;;;;;5042183;28;20031;-72
2022/04/23 01:51:54;;;;;;;11.90;3.50;;;14.80;99.60;;;;;;5038058;28;20101;-70
2022/04/23 01:54:20;;;;;;;11.13;3.30;;;14.80;99.60;;;;;;5017618;28;20033;-70
2022/04/23 01:56:45;;;;;;;16.38;4.13;;;14.70;99.50;;;;;;5017432;28;20045;-72
2022/04/23 01:59:11;;;;;;;12.23;2.90;;;14.70;99.50;;;;;;5035787;28;20032;-71
2022/04/23 02:01:37;;;;;;;11.07;3.03;;;14.70;99.60;;;;;;5036029;28;20033;-73
2022/04/23 02:04:06;;;;;;;12.38;3.75;;;14.70;99.70;;;;;;5017428;28;20382;-74
2022/04/23 02:06:33;;;;;;;9.32;2.60;;;14.70;99.70;;;;;;5035013;28;20029;-74
2022/04/23 02:09:03;;;;;;;9.02;2.97;;;14.70;99.80;;;;;;5018485;28;20048;-76
2022/04/23 02:11:29;;;;;;;10.50;2.95;;;14.70;99.80;;;;;;5035609;28;20018;-74
2022/04/23 02:13:55;;;;;;;13.88;3.38;;;14.70;99.90;;;;;;5034671;28;20487;-74
2022/04/23 02:16:20;;;;;;;11.40;2.72;;;14.60;99.90;;;;;;5034785;28;20021;-75
2022/04/23 02:18:46;;;;;;;10.45;3.35;;;14.60;99.90;;;;;;5035059;28;20026;-73
2022/04/23 02:21:12;;;;;;;14.07;3.33;;;14.60;99.90;;;;;;5035047;28;20075;-73
2022/04/23 02:23:38;;;;;;;9.77;2.88;;;14.60;99.90;;;;;;5035099;28;20057;-71
2022/04/23 02:26:05;;;;;;;11.63;3.40;;;14.60;99.90;;;;;;5034664;28;20036;-70
2022/04/23 02:28:32;;;;;;;12.82;3.22;;;14.50;99.90;;;;;;5034828;28;20025;-73
2022/04/23 02:30:57;;;;;;;15.73;3.50;;;14.50;99.90;;;;;;5034970;28;20026;-74
2022/04/23 02:33:23;;;;;;;15.25;3.25;;;14.50;99.90;;;;;;5034630;28;20037;-72
2022/04/23 02:35:50;;;;;;;8.50;2.90;;;14.50;99.90;;;;;;5034796;28;20116;-72
2022/04/23 02:38:17;;;;;;;11.93;3.63;;;14.50;99.90;;;;;;5034604;28;20025;-71
2022/04/23 02:40:45;;;;;;;10.82;3.05;;;14.50;99.90;;;;;;5034453;28;20506;-73
2022/04/23 02:43:12;;;;;;;12.13;3.42;;;14.40;99.90;;;;;;5034586;28;20076;-74
2022/04/23 02:45:39;;;;;;;7.55;2.88;;;14.40;99.90;;;;;;5034326;28;20045;-71
2022/04/23 02:48:06;;;;;;;14.38;3.35;;;14.40;99.90;;;;;;5034645;28;20025;-71
2022/04/23 02:50:37;;;;;;;11.02;2.97;;;14.40;99.90;;;;;;5034386;28;20099;-74
2022/04/23 02:53:07;;;;;;;12.77;3.30;;;14.40;99.90;;;;;;5034250;28;20035;-72
2022/04/23 02:55:34;;;;;;;8.98;2.65;;;14.40;99.90;;;;;;5034373;28;20509;-71
2022/04/23 02:58:01;;;;;;;9.18;2.58;;;14.40;99.90;;;;;;5034526;28;20460;-70
2022/04/23 03:00:27;;;;;;;11.60;3.10;;;14.40;99.90;;;;;;5034305;28;20021;-75
2022/04/23 03:02:53;;;;;;;10.63;2.65;;;14.40;99.90;;;;;;5034323;28;20100;-75
2022/04/23 03:05:18;;;;;;;7.07;2.47;;;14.40;99.90;;;;;;5034077;28;20034;-70
2022/04/23 03:07:45;;;;;;;8.95;2.65;;;14.40;99.80;;;;;;5033686;28;20107;-71
2022/04/23 03:10:13;;;;;;;10.05;2.80;;;14.50;99.70;;;;;;5033794;28;20040;-73
2022/04/23 03:12:39;;;;;;;13.75;3.35;;;14.50;99.60;;;;;;5033971;28;20037;-74
2022/04/23 03:15:06;;;;;;;9.70;3.05;;;14.50;99.40;;;;;;5033779;28;20116;-71
2022/04/23 03:17:32;;;;;;;9.30;3.00;;;14.50;99.20;;;;;;5033762;28;20017;-69
2022/04/23 03:19:58;;;;;;;8.63;2.58;;;14.50;99.10;;;;;;5033835;28;20032;-70
2022/04/23 03:22:24;;;;;;;10.15;2.28;;;14.50;99.10;;;;;;5033731;28;20017;-71
2022/04/23 03:24:49;;;;;;;11.38;2.47;;;14.40;99.00;;;;;;5033888;28;20033;-71
2022/04/23 03:27:16;;;;;;;8.73;2.40;;;14.40;99.00;;;;;;5033772;28;20026;-70
2022/04/23 03:29:42;;;;;;;8.23;2.60;;;14.40;99.00;;;;;;5033761;28;20079;-73
2022/04/23 03:32:08;;;;;;;8.07;2.47;;;14.30;99.00;;;;;;5033942;28;20049;-73
2022/04/23 03:34:33;;;;;;;9.90;2.60;;;14.30;98.90;;;;;;5033886;28;20496;-70
2022/04/23 03:37:00;;;;;;;9.52;2.60;;;14.30;98.90;;;;;;5033646;28;20017;-70
2022/04/23 03:39:26;;;;;;;10.10;2.58;;;14.30;98.90;;;;;;5033239;28;20037;-71
2022/04/23 03:41:52;;;;;;;11.75;2.88;;;14.30;99.00;;;;;;5033641;28;20043;-72
2022/04/23 03:44:18;;;;;;;7.88;3.28;;;14.30;99.10;;;;;;5033237;28;20022;-70
2022/04/23 03:46:43;;;;;;;10.30;3.03;;;14.20;99.00;;;;;;5033313;28;20053;-72
2022/04/23 03:49:09;;;;;;;9.25;2.90;;;14.20;99.00;;;;;;5015553;28;20374;-70
2022/04/23 03:51:35;;;;;;;9.25;3.20;;;14.20;99.10;;;;;;5033453;28;20098;-70
2022/04/23 03:54:01;;;;;;;10.63;3.28;;;14.20;99.10;;;;;;5033154;28;20029;-71
2022/04/23 03:56:27;;;;;;;9.50;3.80;;;14.20;99.30;;;;;;5033397;28;20562;-73
2022/04/23 03:58:53;;;;;;;8.77;3.20;;;14.20;99.20;;;;;;5015320;28;20060;-71
2022/04/23 04:01:19;;;;;;;14.07;4.47;;;14.20;99.60;;;;;;5015451;28;20025;-70
2022/04/23 04:03:45;;;;;;;11.98;3.55;;;14.10;99.40;;;;;;5033295;28;20032;-74
2022/04/23 04:06:11;;;;;;;11.63;3.70;;;14.10;99.50;;;;;;5033530;28;20021;-73
2022/04/23 04:08:36;;;;;;;12.85;4.15;;;14.10;99.60;;;;;;5033602;28;20053;-73
2022/04/23 04:11:02;;;;;;;8.60;3.40;;;14.10;99.60;;;;;;5033589;28;20115;-73
2022/04/23 04:13:28;;;;;;;10.93;4.18;;;14.10;99.40;;;;;;5033027;28;20037;-73
2022/04/23 04:15:55;;;;;;;9.82;3.53;;;14.10;99.40;;;;;;5015446;28;20030;-71
2022/04/23 04:18:21;;;;;;;11.90;3.50;;;14.10;99.40;;;;;;5033318;28;20108;-73
2022/04/23 04:20:49;;;;;;;9.75;3.35;;;14.00;99.40;;;;;;5036238;28;20097;-70
2022/04/23 04:23:15;;;;;;;13.77;4.03;;;14.00;99.40;;;;;;5037066;28;20387;-73
2022/04/23 04:25:42;;;;;;;12.07;4.28;;;14.10;99.50;;;;;;5036940;28;20021;-73
2022/04/23 04:28:09;;;;;;;10.05;3.58;;;14.10;99.50;;;;;;5036806;28;20034;-73
2022/04/23 04:33:19;;;;;;;13.20;4.32;;;14.10;99.50;;;;;;5036852;28;20092;-70
2022/04/23 04:35:45;;;;;;;11.93;4.57;;;14.10;99.30;;;;;;5036910;28;20079;-71
2022/04/23 04:38:11;;;;;;;13.25;4.75;;;14.10;99.30;;;;;;5036935;28;20033;-70
2022/04/23 04:40:38;;;;;;;10.32;3.58;;;14.00;99.20;;;;;;5036788;28;20021;-71
2022/04/23 04:43:04;;;;;;;11.40;4.63;;;14.00;99.40;;;;;;5018918;28;20029;-70
2022/04/23 04:45:30;;;;;;;11.95;4.30;;;14.00;99.20;;;;;;5036708;28;20394;-71
2022/04/23 04:47:56;;;;;;;10.65;4.03;;;14.00;99.20;;;;;;5036675;28;20041;-71
2022/04/23 04:50:23;;;;;;;12.80;5.22;;;14.00;99.10;;;;;;5036476;28;20014;-70
2022/04/23 04:52:49;;;;;;;16.02;4.53;;;13.90;99.10;;;;;;5018693;28;20030;-70
2022/04/23 04:55:15;;;;;;;10.98;4.43;;;13.80;99.20;;;;;;5036497;28;20160;-72
2022/04/23 04:57:41;;;;;;;14.35;4.43;;;13.80;99.20;;;;;;5036766;28;20072;-71
2022/04/23 05:00:08;;;;;;;11.77;4.50;;;13.80;99.20;;;;;;5036844;28;20382;-72
2022/04/23 05:02:33;;;;;;;11.95;4.47;;;13.80;99.20;;;;;;5038562;28;20039;-71
2022/04/23 05:04:59;;;;;;;12.98;4.95;;;13.80;99.00;;;;;;5051346;28;20033;-69
2022/04/23 05:07:25;;;;;;;14.68;4.55;;;13.80;99.00;;;;;;5056464;28;20048;-71
2022/04/23 05:09:50;;;;;;;10.80;4.43;;;13.90;98.90;;;;;;5041953;28;20025;-71
2022/04/23 05:12:16;;;;;;;16.88;5.07;;;14.00;98.80;;;;;;5036714;28;20029;-70
2022/04/23 05:14:42;;;;;;;12.43;4.32;;;14.00;98.60;;;;;;5036366;28;20075;-70
2022/04/23 05:17:07;;;;;;;7.97;4.50;;;14.00;98.60;;;;;;5036657;28;20471;-71
2022/04/23 05:19:33;;;;;;;15.20;4.72;;;14.00;98.50;;;;;;5036550;28;20069;-70
2022/04/23 05:21:59;;;;;;;20.00;4.88;;;14.10;98.70;;;;;;5035763;28;20021;-71
2022/04/23 05:24:24;;;;;;;11.52;4.80;;;14.10;98.80;;;;;;5018040;28;20593;-70
2022/04/23 05:26:50;;;;;;;17.92;4.75;;;14.10;98.50;;;;;;5035914;28;20017;-72
2022/04/23 05:29:16;;;;;;;13.30;4.80;;;14.10;98.40;;;;;;5035894;28;20036;-71
2022/04/23 05:31:42;;;;;;;11.45;5.07;;;14.10;98.40;;;;;;5035092;28;20021;-71
2022/04/23 05:34:07;;;;;;;16.30;5.30;;;14.20;98.40;;;;;;5035559;28;20068;-70
2022/04/23 05:36:33;;;;;;;11.88;5.32;;;14.30;98.30;;;;;;5035746;28;20026;-71
2022/04/23 05:39:00;;;;;;;11.43;4.93;;;14.40;98.10;;;;;;5035794;28;20034;-71
2022/04/23 05:41:26;;;;;;;17.00;4.78;;;14.50;98.00;;;;;;5017829;28;20024;-70
2022/04/23 05:43:52;;;;;;;10.25;4.78;;;14.60;97.70;;;;;;5035450;28;20025;-70
2022/04/23 05:46:19;;;;;;;15.93;5.35;;;14.80;97.30;;;;;;5017824;28;20606;-73
2022/04/23 05:48:44;;;;;;;13.48;5.15;;;15.10;96.90;;;;;;5035351;28;20029;-74
2022/04/23 05:51:10;;;;;;;14.45;5.47;;;15.30;96.30;;;;;;5035799;28;20029;-71
2022/04/23 05:53:36;;;;;;;12.38;5.53;;;15.50;95.90;;;;;;5035801;28;20041;-70
2022/04/23 05:56:02;;;;;;;11.63;5.70;;;15.70;95.50;;;;;;5035594;28;20060;-72
2022/04/23 05:58:27;;;;;;;17.05;5.45;;;16.00;95.00;;;;;;5035618;28;20382;-74
2022/04/23 06:00:54;;;;;;;17.33;5.45;;;16.20;94.60;;;;;;5017579;28;20021;-72
2022/04/23 06:03:20;;;;;;;15.43;6.00;;;16.30;94.10;;;;;;5017744;28;20038;-74
2022/04/23 06:05:46;;;;;;;12.43;5.38;;;16.40;93.90;;;;;;5035750;28;20029;-72
2022/04/23 06:08:12;;;;;;;13.43;5.55;;;16.50;93.50;;;;;;5036006;28;20018;-72
2022/04/23 06:10:37;;;;;;;14.43;5.60;;;16.60;93.00;;;;;;5035561;28;20458;-73
2022/04/23 06:13:06;;;;;;;13.98;5.25;;;16.80;92.90;;;;;;5035316;28;20080;-71
2022/04/23 06:15:32;;;;;;;10.10;4.57;;;17.00;92.50;;;;;;5035366;28;20478;-73
2022/04/23 06:17:58;;;;;;;14.27;4.88;;;17.10;91.80;;;;;;5035512;28;20029;-73
2022/04/23 06:20:24;;;;;;;13.48;4.13;;;17.30;91.60;;;;;;5035001;28;20021;-73
2022/04/23 06:22:50;;;;;;;11.73;3.45;;;17.50;91.30;;;;;;5017263;28;20053;-70
2022/04/23 06:25:16;;;;;;;10.18;5.60;;;17.70;90.70;;;;;;5017383;28;20050;-72
2022/04/23 06:27:41;;;;;;;12.25;4.60;;;18.00;90.30;;;;;;5035089;28;20032;-74
2022/04/23 06:30:09;;;;;;;13.30;4.50;;;18.10;89.40;;;;;;5035043;28;20041;-74
2022/04/23 06:32:38;;;;;;;24.27;5.25;;;18.20;87.70;;;;;;5035319;28;20068;-74
2022/04/23 06:35:06;;;;;;;13.05;5.20;;;18.30;87.10;;;;;;5034637;28;20104;-73
2022/04/23 06:37:36;;;;;;;11.15;4.18;;;18.40;87.00;;;;;;5034890;28;20053;-73
2022/04/23 06:40:03;;;;;;;11.60;3.38;;;18.60;86.60;;;;;;5034375;28;20082;-71
2022/04/23 06:42:30;;;;;;;11.23;5.13;;;18.80;85.30;;;;;;5033682;28;20026;-72
2022/04/23 06:44:56;;;;;;;8.93;3.88;;;19.00;84.30;;;;;;5034631;28;20456;-72
2022/04/23 06:47:23;;;;;;;13.18;4.00;;;19.10;83.00;;;;;;5034772;28;20028;-73
2022/04/23 06:49:48;;;;;;;14.35;4.88;;;19.30;82.40;;;;;;5016746;28;20180;-73
2022/04/23 06:52:14;;;;;;;14.75;4.80;;;19.30;80.90;;;;;;5034732;28;20057;-74
2022/04/23 06:54:40;;;;;;;12.20;5.32;;;19.40;80.30;;;;;;5034715;28;20033;-72
2022/04/23 06:57:05;;;;;;;12.70;4.78;;;19.50;80.20;;;;;;5034590;28;20013;-73
2022/04/23 06:59:33;;;;;;;9.90;4.50;;;19.60;80.00;;;;;;5034663;28;20091;-72
2022/04/23 07:02:02;;;;;;;10.52;4.38;;;19.80;79.70;;;;;;5034442;28;20370;-71
2022/04/23 07:04:29;;;;;;;8.73;4.57;;;19.90;79.10;;;;;;5034040;28;20024;-72
2022/04/23 07:06:54;;;;;;;11.93;4.35;;;20.00;78.10;;;;;;5034456;28;20080;-71
2022/04/23 07:09:20;;;;;;;11.48;3.85;;;20.00;78.30;;;;;;5034296;28;20029;-71
2022/04/23 07:11:47;;;;;;;9.48;3.90;;;20.10;79.00;;;;;;5034486;28;20052;-73
2022/04/23 07:14:13;;;;;;;15.32;3.55;;;20.20;78.80;;;;;;5034153;28;20390;-73
2022/04/23 07:16:40;;;;;;;12.63;3.83;;;20.20;78.90;;;;;;5033845;28;20475;-73
2022/04/23 07:19:07;;;;;;;8.50;2.92;;;20.30;77.30;;;;;;5033858;28;20024;-72
2022/04/23 07:21:34;;;;;;;14.48;3.20;;;20.40;76.70;;;;;;5034101;28;20026;-72
2022/04/23 07:24:04;;;;;;;7.53;2.05;;;20.50;76.50;;;;;;5033971;28;20028;-74
2022/04/23 07:26:31;;;;;;;9.88;3.05;;;20.60;75.90;;;;;;5034107;28;20025;-72
2022/04/23 07:28:57;;;;;;;8.48;2.05;;;20.70;75.70;;;;;;5033877;28;20029;-72
2022/04/23 07:31:24;;;;;;;5.72;1.70;;;20.70;74.20;;;;;;5033629;28;20029;-74
2022/04/23 07:39:18;;;;;;;5.85;1.88;;;20.70;73.20;;;;;;5034333;28;20178;-71
2022/04/23 07:41:44;;;;;;;7.80;1.63;;;20.60;72.70;;;;;;5034021;28;20514;-72
2022/04/23 07:44:10;;;;;;;6.05;2.00;;;20.60;72.20;;;;;;5034040;28;20021;-72
2022/04/23 07:46:35;;;;;;;8.80;1.90;;;20.60;72.00;;;;;;5033751;28;20053;-73
2022/04/23 07:49:01;;;;;;;7.20;2.30;;;20.60;71.70;;;;;;5033964;28;20013;-73
2022/04/23 07:51:27;;;;;;;6.15;2.10;;;20.50;71.50;;;;;;5033616;28;20061;-73
2022/04/23 07:53:54;;;;;;;8.48;2.22;;;20.40;72.20;;;;;;5033274;28;20044;-72
2022/04/23 07:56:21;;;;;;;5.43;1.80;;;20.30;72.20;;;;;;5033628;28;20426;-73
2022/04/23 07:58:47;;;;;;;7.85;1.60;;;20.30;70.80;;;;;;5033622;28;20025;-72
2022/04/23 08:01:12;;;;;;;9.45;2.90;;;20.30;71.50;;;;;;5015800;28;20032;-74
2022/04/23 08:03:38;;;;;;;6.22;1.63;;;20.30;72.20;;;;;;5015758;28;20032;-72
2022/04/23 08:06:04;;;;;;;9.05;2.10;;;20.20;71.10;;;;;;5033655;28;20022;-73
2022/04/23 08:08:30;;;;;;;6.35;2.10;;;20.20;71.40;;;;;;5016084;28;20036;-73
2022/04/23 08:10:55;;;;;;;4.05;1.40;;;20.20;71.80;;;;;;5033605;28;20060;-72
2022/04/23 08:13:23;;;;;;;6.30;1.75;;;20.10;71.10;;;;;;5034745;28;20067;-72
2022/04/23 08:15:49;;;;;;;5.90;2.13;;;20.10;71.20;;;;;;5034846;28;20010;-73
2022/04/23 08:18:16;;;;;;;8.57;2.08;;;20.10;71.20;;;;;;5038500;28;20131;-72
2022/04/23 08:20:42;;;;;;;5.93;1.45;;;20.10;71.30;;;;;;5051779;28;20026;-72
2022/04/23 08:23:08;;;;;;;7.43;1.40;;;20.10;70.90;;;;;;5048852;28;20026;-72
2022/04/23 08:25:34;;;;;;;9.85;2.30;;;20.10;70.70;;;;;;5052420;28;20025;-72
2022/04/23 08:30:34;;;;;;;5.70;1.70;;;20.00;70.80;;;;;;5044920;28;20032;-73
2022/04/23 08:30:46;;;;;;;6.15;1.52;;;20.00;70.50;;;;;;5033882;28;20153;-72
2022/04/23 08:33:12;;;;;;;7.68;1.77;;;19.90;71.50;;;;;;4999209;28;20340;-71
2022/04/23 08:35:39;;;;;;;6.97;1.73;;;20.00;71.70;;;;;;5015484;28;20512;-72
2022/04/23 08:38:06;;;;;;;5.70;1.70;;;20.00;70.50;;;;;;5033227;28;20021;-74
2022/04/23 08:40:43;;;;;;;7.50;1.67;;;20.10;71.00;;;;;;5033676;28;20554;-73
2022/04/23 08:43:08;;;;;;;7.95;1.95;;;20.20;70.00;;;;;;5033327;28;20025;-72
2022/04/23 08:45:39;;;;;;;8.18;1.70;;;20.20;71.00;;;;;;5033173;28;20119;-72
2022/04/23 08:48:09;;;;;;;6.63;1.75;;;20.10;69.80;;;;;;5033541;28;20100;-72
2022/04/23 08:50:37;;;;;;;7.95;2.15;;;20.20;69.90;;;;;;5015295;28;20034;-72
2022/04/23 08:53:08;;;;;;;7.55;1.80;;;20.10;70.10;;;;;;5032511;28;20025;-75
2022/04/23 08:55:35;;;;;;;7.57;2.33;;;20.10;70.00;;;;;;5014734;28;20034;-73
2022/04/23 08:58:01;;;;;;;9.23;1.90;;;20.10;71.20;;;;;;5032654;28;20113;-73
2022/04/23 09:00:26;;;;;;;7.00;1.98;;;20.10;70.40;;;;;;5014821;28;20126;-72
2022/04/23 09:02:52;;;;;;;7.40;2.30;;;20.20;70.40;;;;;;5032589;28;20049;-72
2022/04/23 09:05:19;;;;;;;7.78;1.80;;;20.20;70.20;;;;;;5032901;28;20029;-73
2022/04/23 09:07:56;;;;;;;6.13;1.73;;;20.20;70.60;;;;;;5002201;28;20022;-72
2022/04/23 09:10:46;;;;;;;6.10;1.98;;;20.20;70.10;;;;;;5018322;28;20379;-73
2022/04/23 09:13:24;;;;;;;5.93;1.67;;;20.10;69.00;;;;;;5035710;28;20037;-71
2022/04/23 09:24:45;;;;;;;10.10;2.72;;;20.30;68.70;;;;;;5035594;28;20117;-73
2022/04/23 09:27:11;;;;;;;8.00;2.25;;;20.30;70.50;;;;;;5035812;28;20034;-71
2022/04/23 09:29:36;;;;;;;12.02;2.28;;;20.30;70.20;;;;;;5035397;28;20125;-73
2022/04/23 09:32:19;;;;;;;11.05;2.88;;;20.50;69.60;;;;;;5035501;28;20037;-71
2022/04/23 09:34:45;;;;;;;9.32;2.40;;;20.60;69.60;;;;;;5035193;28;20557;-72
2022/04/23 09:37:11;;;;;;;8.10;2.28;;;20.70;69.10;;;;;;5050804;28;20053;-73
2022/04/23 09:39:38;;;;;;;7.82;2.10;;;20.70;68.40;;;;;;5035571;28;20070;-73
2022/04/23 09:42:17;;;;;;;8.23;2.47;;;20.70;67.90;;;;;;5035270;28;20025;-73
2022/04/23 09:44:44;;;;;;;18.83;9.13;;;20.70;66.20;;;;;;5035038;28;20116;-72
2022/04/23 09:47:27;;;;;;;13.18;6.35;;;20.70;68.30;;;;;;5018166;28;20034;-72
2022/04/23 09:49:56;;;;;;;14.25;3.38;;;20.70;66.00;;;;;;5035709;28;20046;-72
2022/04/23 09:52:30;;;;;;;5.20;1.88;;;20.70;68.00;;;;;;5035871;28;20056;-72
2022/04/23 09:55:02;;;;;;;7.97;2.92;;;20.80;67.50;;;;;;5016961;28;20048;-72
2022/04/23 09:57:30;;;;;;;7.03;2.10;;;20.80;65.40;;;;;;5035511;28;20056;-72
2022/04/23 09:59:56;;;;;;;8.95;2.38;;;20.90;66.90;;;;;;5035275;28;20022;-73
2022/04/23 10:02:24;;;;;;;8.75;2.47;;;20.90;67.20;;;;;;5035089;28;20033;-72
2022/04/23 10:04:56;;;;;;;7.95;2.15;;;21.00;65.40;;;;;;5034842;28;20029;-73
2022/04/23 10:07:24;;;;;;;5.50;1.60;;;21.10;66.60;;;;;;5034806;28;20069;-72
2022/04/23 10:09:51;;;;;;;9.52;1.80;;;21.00;65.80;;;;;;5017171;28;20037;-72
2022/04/23 10:12:22;;;;;;;12.48;2.63;;;21.00;65.90;;;;;;5034883;28;20026;-72
2022/04/23 10:14:56;;;;;;;6.43;1.90;;;21.10;64.00;;;;;;5034965;28;20047;-75
2022/04/23 10:17:24;;;;;;;10.25;2.97;;;21.20;65.40;;;;;;5034988;28;20386;-73
2022/04/23 10:19:51;;;;;;;5.72;1.95;;;21.20;64.40;;;;;;5017232;28;20390;-73
2022/04/23 10:22:56;;;;;;;12.80;2.58;;;21.30;64.40;;;;;;5016922;28;20517;-72
2022/04/23 10:25:49;;;;;;;7.97;2.63;;;21.30;63.90;;;;;;5016788;28;20029;-72
2022/04/23 10:28:17;;;;;;;10.75;2.20;;;21.30;62.00;;;;;;5035557;28;20025;-74
2022/04/23 10:30:47;;;;;;;6.55;2.05;;;21.40;63.00;;;;;;5018491;28;20036;-73
2022/04/23 10:33:26;;;;;;;11.98;2.40;;;21.50;62.70;;;;;;5038684;28;20100;-72
2022/04/23 10:36:03;;;;;;;6.97;2.28;;;21.50;62.30;;;;;;5054251;28;20033;-74
2022/04/23 10:38:29;;;;;;;8.80;2.20;;;21.60;62.00;;;;;;5035142;28;20103;-73
2022/04/23 10:40:56;;;;;;;8.15;2.00;;;21.60;61.90;;;;;;5035101;28;20029;-74
2022/04/23 10:43:21;;;;;;;9.02;1.92;;;21.70;61.20;;;;;;5017071;28;20021;-74
2022/04/23 10:45:48;;;;;;;8.45;1.45;;;21.80;60.10;;;;;;5035370;28;20049;-75
2022/04/23 10:48:23;;;;;;;7.07;1.70;;;21.90;59.90;;;;;;5034995;28;20083;-74
2022/04/23 10:51:04;;;;;;;5.97;1.63;;;22.00;58.90;;;;;;5017133;28;20427;-75
2022/04/23 10:53:50;;;;;;;6.93;1.95;;;22.20;58.20;;;;;;5034965;28;20095;-75
2022/04/23 10:56:19;;;;;;;5.03;1.77;;;22.40;59.30;;;;;;5034437;28;20419;-73
2022/04/23 10:58:45;;;;;;;5.25;1.60;;;22.50;58.60;;;;;;5034464;28;20102;-75
2022/04/23 11:01:25;;;;;;;5.80;1.60;;;22.60;58.30;;;;;;5035298;28;20391;-76
2022/04/23 11:04:05;;;;;;;5.85;2.00;;;22.50;57.30;;;;;;5016169;28;20040;-76
2022/04/23 11:12:38;;;;;;;5.03;1.40;;;22.50;57.00;;;;;;5035307;28;20045;-76
2022/04/23 11:15:15;;;;;;;5.05;1.42;;;22.50;56.10;;;;;;5034597;28;20060;-75
2022/04/23 11:17:44;;;;;;;5.63;1.30;;;22.50;56.10;;;;;;5035082;28;20025;-77
2022/04/23 11:20:11;;;;;;;3.97;1.50;;;22.60;54.80;;;;;;5034818;28;20025;-74
2022/04/23 11:22:40;;;;;;;4.63;1.50;;;22.50;55.00;;;;;;5034862;28;20098;-76
2022/04/23 11:25:07;;;;;;;4.70;1.60;;;22.60;54.70;;;;;;5016648;28;20025;-76
2022/04/23 11:27:38;;;;;;;5.35;1.65;;;22.50;54.30;;;;;;5017314;28;20037;-75
2022/04/23 11:30:08;;;;;;;7.70;1.90;;;22.60;54.60;;;;;;5034532;28;20152;-75
2022/04/23 11:32:37;;;;;;;6.15;1.63;;;22.60;54.60;;;;;;5035022;28;20021;-74
2022/04/23 11:35:09;;;;;;;5.60;1.63;;;22.70;54.60;;;;;;5017544;28;20121;-75
2022/04/23 11:37:49;;;;;;;4.80;1.75;;;22.80;54.60;;;;;;5019964;28;20031;-74
2022/04/23 11:40:38;;;;;;;3.67;1.48;;;22.80;53.30;;;;;;5042605;28;20028;-78
2022/04/23 11:43:04;;;;;;;3.92;1.50;;;22.90;53.40;;;;;;5040680;28;20041;-76
2022/04/23 11:45:29;;;;;;;7.82;1.83;;;22.90;53.20;;;;;;5021563;28;20045;-74
2022/04/23 11:47:55;;;;;;;4.90;1.58;;;23.00;53.20;;;;;;5038321;28;20029;-74
2022/04/23 11:50:22;;;;;;;4.70;1.60;;;23.00;53.20;;;;;;5018339;28;20049;-77
2022/04/23 11:53:02;;;;;;;3.05;1.20;;;23.10;53.50;;;;;;5035364;28;20069;-76
2022/04/23 11:55:28;;;;;;;3.50;1.25;;;23.10;52.80;;;;;;5016877;28;20026;-77
2022/04/23 11:58:05;;;;;;;4.70;1.45;;;23.10;52.80;;;;;;5034112;28;20026;-75
2022/04/23 12:00:32;;;;;;;6.82;2.28;;;23.10;52.50;;;;;;5034529;28;20033;-76
2022/04/23 12:02:59;;;;;;;5.60;1.75;;;23.10;53.00;;;;;;5016484;28;20088;-74
2022/04/23 12:05:29;;;;;;;5.72;1.98;;;23.10;52.50;;;;;;5033814;28;20037;-77
2022/04/23 12:07:56;;;;;;;6.57;1.50;;;23.10;52.50;;;;;;5033846;28;20075;-74
2022/04/23 12:10:27;;;;;;;4.68;1.25;;;23.10;52.20;;;;;;5033575;28;20017;-72
2022/04/23 12:12:56;;;;;;;6.68;1.75;;;23.00;52.00;;;;;;5033423;28;20179;-71
2022/04/23 12:15:23;;;;;;;3.25;1.30;;;23.00;52.20;;;;;;5033742;28;20030;-73
2022/04/23 12:17:52;;;;;;;6.75;1.67;;;23.00;52.00;;;;;;5033356;28;20099;-73
2022/04/23 12:20:33;;;;;;;3.97;1.70;;;23.10;52.20;;;;;;5033298;28;20029;-73
2022/04/23 12:23:05;;;;;;;5.15;1.40;;;23.10;51.70;;;;;;5033647;28;20029;-75
2022/04/23 12:25:57;;;;;;;5.68;1.73;;;23.10;52.20;;;;;;5015151;28;20095;-75
2022/04/23 12:42:28;;;;;;;4.10;1.20;;;23.50;51.40;;;;;;5037434;28;20147;-74
2022/04/23 12:44:54;;;;;;;5.70;1.40;;;23.50;51.30;;;;;;5036467;28;20053;-73
2022/04/23 12:47:35;;;;;;;15.75;1.95;;;23.60;51.40;;;;;;5036437;28;20061;-73
2022/04/23 12:50:05;;;;;;;4.95;1.98;;;23.70;51.30;;;;;;5036162;28;20546;-74
2022/04/23 12:52:41;;;;;;;7.78;1.48;;;23.80;51.30;;;;;;5018066;28;20035;-74
2022/04/23 12:55:29;;;;;;;5.35;1.35;;;23.80;50.50;;;;;;5036225;28;20437;-74
2022/04/23 12:58:08;;;;;;;2.67;1.45;;;23.80;49.80;;;;;;5051482;28;20033;-73
2022/04/23 13:00:35;;;;;;;3.63;1.20;;;23.80;50.50;;;;;;5001967;28;20491;-73
2022/04/23 13:03:25;;;;;;;3.50;1.38;;;23.70;50.20;;;;;;5036583;28;20026;-77
2022/04/23 13:05:53;;;;;;;5.47;1.58;;;23.80;49.20;;;;;;5017757;28;20033;-74
2022/04/23 13:13:47;;;;;;;4.68;1.27;;;23.90;49.20;;;;;;5035900;28;20091;-73
2022/04/23 13:16:13;;;;;;;6.05;1.88;;;23.90;48.80;;;;;;5035717;28;20026;-73
2022/04/23 13:18:38;;;;;;;3.13;1.30;;;23.90;48.60;;;;;;5018129;28;20470;-72
2022/04/23 13:21:05;;;;;;;7.57;1.58;;;23.90;48.70;;;;;;5037429;28;20018;-75
2022/04/23 13:23:34;;;;;;;6.55;1.70;;;24.00;48.90;;;;;;5038771;28;20486;-73
2022/04/23 13:26:00;;;;;;;4.57;1.63;;;24.00;48.50;;;;;;5020867;28;20029;-72
2022/04/23 13:28:26;;;;;;;2.78;1.45;;;24.00;48.40;;;;;;5036493;28;20026;-72